createdAt,value
2019-05-19T00:02:21.410Z,99104.32
2019-05-19T00:04:48.704Z,99103.67
2019-05-19T00:07:16.013Z,99100.16
2019-05-19T00:09:43.257Z,99102.50
2019-05-19T00:12:10.761Z,99095.73
2019-05-19T00:14:38.019Z,99092.72
2019-05-19T00:17:05.355Z,99096.52
2019-05-19T00:19:32.756Z,99095.63
2019-05-19T00:22:00.060Z,99089.80
2019-05-19T00:24:27.281Z,99094.74
2019-05-19T00:26:54.741Z,99094.41
2019-05-19T00:29:22.080Z,99097.08
2019-05-19T00:31:49.411Z,99097.38
2019-05-19T00:34:16.653Z,99092.03
2019-05-19T00:36:43.973Z,99092.97
2019-05-19T00:39:11.189Z,99095.36
2019-05-19T00:41:38.467Z,99097.60
2019-05-19T00:44:05.751Z,99093.93
2019-05-19T00:46:33.192Z,99090.00
2019-05-19T00:49:00.545Z,99092.60
2019-05-19T00:51:27.813Z,99090.75
2019-05-19T00:53:55.044Z,99089.18
2019-05-19T00:56:22.520Z,99090.56
2019-05-19T00:58:49.880Z,99085.13
2019-05-19T01:01:17.134Z,99083.52
2019-05-19T01:03:44.409Z,99085.50
2019-05-19T01:06:11.685Z,99079.32
2019-05-19T01:08:38.973Z,99076.97
2019-05-19T01:11:06.286Z,99076.47
2019-05-19T01:13:33.562Z,99071.86
2019-05-19T01:16:00.911Z,99073.48
2019-05-19T01:18:28.323Z,99071.54
2019-05-19T01:20:55.716Z,99070.09
2019-05-19T01:23:24.242Z,99067.23
2019-05-19T01:25:51.514Z,99070.01
2019-05-19T01:28:18.779Z,99068.69
2019-05-19T01:30:46.073Z,99068.76
2019-05-19T01:33:14.413Z,99063.53
2019-05-19T01:35:41.716Z,99059.97
2019-05-19T01:38:09.081Z,99067.56
2019-05-19T01:40:36.449Z,99058.98
2019-05-19T01:43:03.738Z,99055.42
2019-05-19T01:45:31.159Z,99061.63
2019-05-19T01:47:58.391Z,99028.37
2019-05-19T01:50:26.776Z,99049.57
2019-05-19T01:52:55.002Z,99049.31
2019-05-19T01:55:23.315Z,99054.30
2019-05-19T01:57:50.695Z,99052.72
2019-05-19T02:00:18.083Z,99051.22
2019-05-19T02:02:45.393Z,99046.21
2019-05-19T02:05:13.067Z,99047.74
2019-05-19T02:07:40.450Z,99049.62
2019-05-19T02:10:08.620Z,99043.98
2019-05-19T02:12:35.944Z,99045.39
2019-05-19T02:15:03.560Z,99046.18
2019-05-19T02:17:31.911Z,99046.56
2019-05-19T02:19:59.216Z,99049.41
2019-05-19T02:22:26.636Z,99043.36
2019-05-19T02:24:54.058Z,99046.13
2019-05-19T02:27:21.328Z,99047.59
2019-05-19T02:29:48.555Z,99042.73
2019-05-19T02:32:15.826Z,99038.88
2019-05-19T02:34:43.092Z,99030.60
2019-05-19T02:37:10.329Z,99041.95
2019-05-19T02:39:37.600Z,99035.95
2019-05-19T02:42:04.965Z,99036.78
2019-05-19T02:44:33.794Z,99038.76
2019-05-19T02:47:01.825Z,99035.91
2019-05-19T02:49:30.137Z,99037.35
2019-05-19T02:51:58.467Z,99040.51
2019-05-19T02:56:42.606Z,99035.41
2019-05-19T02:59:09.886Z,99041.16
2019-05-19T03:01:56.720Z,99038.39
2019-05-19T03:04:24.013Z,99039.38
2019-05-19T03:06:52.539Z,99041.20
2019-05-19T03:09:20.035Z,99033.98
2019-05-19T03:11:47.250Z,99042.16
2019-05-19T03:14:14.608Z,99045.44
2019-05-19T03:16:41.867Z,99039.30
2019-05-19T03:19:09.143Z,99042.41
2019-05-19T03:21:36.510Z,99047.59
2019-05-19T03:24:03.812Z,99040.99
2019-05-19T03:26:31.052Z,99040.66
2019-05-19T03:28:58.342Z,99038.52
2019-05-19T03:31:32.849Z,99035.23
2019-05-19T03:34:00.070Z,99037.55
2019-05-19T03:36:27.381Z,99038.05
2019-05-19T03:38:54.789Z,99044.20
2019-05-19T03:41:22.035Z,99041.56
2019-05-19T03:43:50.256Z,99041.65
2019-05-19T03:46:17.583Z,99041.98
2019-05-19T03:48:44.870Z,99046.63
2019-05-19T03:51:29.202Z,99047.59
2019-05-19T03:53:41.336Z,99054.59
2019-05-19T03:56:08.662Z,99053.72
2019-05-19T03:58:36.113Z,99054.00
2019-05-19T04:01:03.466Z,99054.52
2019-05-19T04:03:30.919Z,99054.34
2019-05-19T04:05:58.388Z,99055.92
2019-05-19T04:08:25.828Z,99056.75
2019-05-19T04:10:53.157Z,99059.69
2019-05-19T04:13:20.613Z,99049.36
2019-05-19T04:15:48.916Z,99057.20
2019-05-19T04:18:16.442Z,99056.13
2019-05-19T04:20:43.825Z,99055.45
2019-05-19T04:23:11.131Z,99053.11
2019-05-19T04:25:38.680Z,99049.74
2019-05-19T04:28:05.928Z,99055.23
2019-05-19T04:30:33.293Z,99063.45
2019-05-19T04:33:00.690Z,99062.33
2019-05-19T04:35:27.965Z,99064.77
2019-05-19T04:37:55.312Z,99067.34
2019-05-19T04:40:22.589Z,99066.69
2019-05-19T04:42:49.933Z,99067.13
2019-05-19T04:45:17.184Z,99062.84
2019-05-19T04:47:44.474Z,99065.40
2019-05-19T04:50:11.870Z,99065.64
2019-05-19T04:52:39.110Z,99066.81
2019-05-19T04:55:06.569Z,99063.50
2019-05-19T04:57:35.100Z,99065.59
2019-05-19T05:00:03.154Z,99070.23
2019-05-19T05:02:31.955Z,99064.06
2019-05-19T05:04:59.434Z,99068.42
2019-05-19T05:07:26.746Z,99064.23
2019-05-19T05:09:54.047Z,99065.66
2019-05-19T05:12:21.253Z,99062.06
2019-05-19T05:14:49.535Z,99060.99
2019-05-19T05:17:16.894Z,99058.25
2019-05-19T05:19:44.143Z,99058.64
2019-05-19T05:22:21.819Z,99064.30
2019-05-19T05:24:40.699Z,99068.73
2019-05-19T05:27:08.160Z,99064.03
2019-05-19T05:29:35.591Z,99061.45
2019-05-19T05:32:03.054Z,99057.45
2019-05-19T05:34:30.402Z,99052.00
2019-05-19T05:36:58.021Z,99053.41
2019-05-19T05:39:25.559Z,99061.39
2019-05-19T05:41:53.045Z,99058.41
2019-05-19T05:44:20.442Z,99051.80
2019-05-19T05:46:47.807Z,99056.44
2019-05-19T05:49:15.113Z,99061.80
2019-05-19T05:51:43.398Z,99064.02
2019-05-19T05:54:10.707Z,99060.25
2019-05-19T05:56:38.030Z,99058.87
2019-05-19T05:59:05.377Z,99060.20
2019-05-19T06:01:32.653Z,99034.23
2019-05-19T06:03:59.935Z,99054.59
2019-05-19T06:08:41.006Z,99047.40
2019-05-19T06:11:08.271Z,99050.94
2019-05-19T06:13:35.518Z,99033.88
2019-05-19T06:16:03.932Z,99045.17
2019-05-19T06:18:32.235Z,99048.03
2019-05-19T06:20:59.458Z,99053.46
2019-05-19T06:23:26.690Z,99052.30
2019-05-19T06:25:54.082Z,99053.44
2019-05-19T06:28:21.412Z,99053.70
2019-05-19T06:30:48.784Z,99051.73
2019-05-19T06:33:16.060Z,99050.81
2019-05-19T06:35:43.540Z,99050.77
2019-05-19T06:38:10.789Z,99054.25
2019-05-19T06:40:38.473Z,99057.79
2019-05-19T06:43:05.823Z,99053.20
2019-05-19T06:45:42.570Z,99059.88
2019-05-19T06:48:10.644Z,99049.80
2019-05-19T06:50:40.810Z,99046.86
2019-05-19T06:53:13.843Z,99040.96
2019-05-19T06:55:36.943Z,99040.03
2019-05-19T06:58:04.341Z,99038.83
2019-05-19T07:00:31.743Z,99040.16
2019-05-19T07:02:59.246Z,99039.70
2019-05-19T07:05:26.617Z,99040.28
2019-05-19T07:07:53.935Z,99038.20
2019-05-19T07:10:21.438Z,99028.27
2019-05-19T07:12:48.923Z,99033.95
2019-05-19T07:15:16.918Z,99031.47
2019-05-19T07:17:44.319Z,99031.75
2019-05-19T07:20:12.271Z,99029.03
2019-05-19T07:22:39.528Z,99036.63
2019-05-19T07:25:06.864Z,99031.15
2019-05-19T07:27:34.433Z,99032.73
2019-05-19T07:30:01.850Z,99030.44
2019-05-19T07:32:29.557Z,99030.63
2019-05-19T07:34:56.970Z,99027.56
2019-05-19T07:37:24.526Z,99025.66
2019-05-19T07:39:51.951Z,99031.27
2019-05-19T07:42:19.472Z,99029.88
2019-05-19T07:44:46.876Z,99021.21
2019-05-19T07:47:14.501Z,99037.31
2019-05-19T07:49:41.995Z,99021.79
2019-05-19T07:52:09.474Z,99026.52
2019-05-19T07:54:36.804Z,99026.63
2019-05-19T07:57:04.195Z,99021.30
2019-05-19T07:59:32.578Z,99018.94
2019-05-19T08:01:59.999Z,99019.02
2019-05-19T08:04:27.487Z,99022.89
2019-05-19T08:06:55.572Z,99023.11
2019-05-19T08:09:23.032Z,99020.48
2019-05-19T08:11:50.481Z,99015.98
2019-05-19T08:14:18.006Z,99021.88
2019-05-19T08:16:45.400Z,99013.95
2019-05-19T08:19:12.676Z,99015.48
2019-05-19T08:21:40.019Z,99002.55
2019-05-19T08:24:07.299Z,99011.92
2019-05-19T08:26:34.877Z,99006.22
2019-05-19T08:29:02.196Z,99006.22
2019-05-19T08:31:29.661Z,98999.77
2019-05-19T08:33:57.308Z,99012.30
2019-05-19T08:36:24.735Z,99010.56
2019-05-19T08:38:53.283Z,99009.19
2019-05-19T08:41:20.585Z,99015.15
2019-05-19T08:43:47.878Z,99011.55
2019-05-19T08:46:15.193Z,99009.87
2019-05-19T08:48:42.562Z,99006.88
2019-05-19T08:51:09.900Z,99014.95
2019-05-19T08:53:37.640Z,99005.75
2019-05-19T08:56:05.186Z,99006.30
2019-05-19T08:58:32.583Z,99005.00
2019-05-19T09:01:00.035Z,98999.02
2019-05-19T09:03:28.846Z,99002.74
2019-05-19T09:05:56.699Z,98994.70
2019-05-19T09:08:24.187Z,99000.79
2019-05-19T09:10:51.828Z,98994.58
2019-05-19T09:13:19.197Z,98995.77
2019-05-19T09:15:46.672Z,98996.78
2019-05-19T09:18:14.083Z,98987.44
2019-05-19T09:20:41.520Z,98978.98
2019-05-19T09:23:08.885Z,98979.69
2019-05-19T09:25:36.197Z,98978.98
2019-05-19T09:28:03.881Z,98977.13
2019-05-19T09:30:32.277Z,98971.73
2019-05-19T09:32:59.706Z,98969.15
2019-05-19T09:35:27.195Z,98967.19
2019-05-19T09:37:54.517Z,98962.63
2019-05-19T09:40:22.351Z,98969.85
2019-05-19T09:42:49.722Z,98969.50
2019-05-19T09:45:17.129Z,98964.11
2019-05-19T09:47:44.468Z,98959.12
2019-05-19T09:50:11.944Z,98962.16
2019-05-19T09:52:40.996Z,98958.73
2019-05-19T09:55:09.060Z,98961.50
2019-05-19T09:57:36.751Z,98950.36
2019-05-19T10:00:04.605Z,98954.08
2019-05-19T10:02:33.200Z,98946.88
2019-05-19T10:05:00.580Z,98948.38
2019-05-19T10:07:28.201Z,98950.69
2019-05-19T10:10:00.408Z,98946.94
2019-05-19T10:12:30.240Z,98948.53
2019-05-19T10:14:57.677Z,98937.77
2019-05-19T10:17:25.302Z,98942.94
2019-05-19T10:19:52.697Z,98936.78
2019-05-19T10:22:20.374Z,98946.56
2019-05-19T10:24:59.627Z,98944.82
2019-05-19T10:27:17.414Z,98931.70
2019-05-19T10:29:44.921Z,98943.65
2019-05-19T10:32:12.619Z,98942.38
2019-05-19T10:34:41.093Z,98938.16
2019-05-19T10:37:08.576Z,98924.24
2019-05-19T10:39:35.995Z,98932.65
2019-05-19T10:42:03.548Z,98926.78
2019-05-19T10:44:30.991Z,98904.03
2019-05-19T10:46:58.546Z,98929.31
2019-05-19T10:49:26.087Z,98931.58
2019-05-19T10:51:53.582Z,98918.94
2019-05-19T10:54:21.090Z,98915.57
2019-05-19T10:56:48.638Z,98924.63
2019-05-19T10:59:16.371Z,98918.96
2019-05-19T11:01:44.000Z,98914.98
2019-05-19T11:04:12.355Z,98918.33
2019-05-19T11:06:41.255Z,98921.16
2019-05-19T11:09:09.646Z,98912.82
2019-05-19T11:11:37.416Z,98918.02
2019-05-19T11:14:04.925Z,98913.39
2019-05-19T11:16:32.358Z,98911.55
2019-05-19T11:19:02.018Z,98907.55
2019-05-19T11:21:29.615Z,98905.61
2019-05-19T11:23:57.964Z,98907.64
2019-05-19T11:26:25.200Z,98911.52
2019-05-19T11:28:52.611Z,98901.29
2019-05-19T11:31:20.101Z,98901.75
2019-05-19T11:33:47.972Z,98899.36
2019-05-19T11:36:15.277Z,98895.08
2019-05-19T11:38:42.541Z,98898.94
2019-05-19T11:41:09.812Z,98893.55
2019-05-19T11:43:37.239Z,98891.84
2019-05-19T11:49:31.168Z,98898.77
2019-05-19T11:51:59.850Z,98890.56
2019-05-19T11:54:27.347Z,98883.89
2019-05-19T11:56:55.772Z,98886.52
2019-05-19T11:59:23.130Z,98889.09
2019-05-19T12:01:50.547Z,98872.70
2019-05-19T12:04:17.821Z,98874.41
2019-05-19T12:06:45.378Z,98880.35
2019-05-19T12:09:12.812Z,98877.52
2019-05-19T12:11:40.125Z,98873.69
2019-05-19T12:14:07.526Z,98875.30
2019-05-19T12:16:34.861Z,98880.14
2019-05-19T12:19:02.153Z,98860.28
2019-05-19T12:21:30.534Z,98866.02
2019-05-19T12:23:57.812Z,98866.13
2019-05-19T12:26:25.055Z,98869.22
2019-05-19T12:28:52.458Z,98862.56
2019-05-19T12:31:19.723Z,98859.96
2019-05-19T12:33:51.861Z,98862.36
2019-05-19T12:36:18.401Z,98866.69
2019-05-19T12:38:45.753Z,98867.25
2019-05-19T12:41:13.000Z,98855.33
2019-05-19T12:43:40.211Z,98865.28
2019-05-19T12:46:16.070Z,98871.67
2019-05-19T12:48:36.667Z,98860.39
2019-05-19T12:51:04.097Z,98869.59
2019-05-19T12:53:31.455Z,98863.38
2019-05-19T12:55:58.860Z,98860.98
2019-05-19T12:58:26.234Z,98864.38
2019-05-19T13:00:53.465Z,98854.84
2019-05-19T13:03:20.801Z,98856.72
2019-05-19T13:05:48.175Z,98853.56
2019-05-19T13:08:15.409Z,98853.85
2019-05-19T13:10:42.683Z,98844.75
2019-05-19T13:13:10.054Z,98852.09
2019-05-19T13:15:37.448Z,98853.88
2019-05-19T13:18:04.748Z,98851.80
2019-05-19T13:20:32.630Z,98847.02
2019-05-19T13:23:00.010Z,98855.80
2019-05-19T13:25:27.260Z,98851.17
2019-05-19T13:27:54.899Z,98851.66
2019-05-19T13:30:22.162Z,98855.73
2019-05-19T13:32:49.422Z,98852.48
2019-05-19T13:35:16.799Z,98830.92
2019-05-19T13:37:44.978Z,98851.63
2019-05-19T13:40:12.617Z,98851.91
2019-05-19T13:42:39.998Z,98854.59
2019-05-19T13:45:07.444Z,98860.94
2019-05-19T13:47:35.125Z,98857.23
2019-05-19T13:50:02.408Z,98854.02
2019-05-19T13:52:30.648Z,98855.91
2019-05-19T13:54:57.945Z,98853.76
2019-05-19T13:57:25.208Z,98852.64
2019-05-19T13:59:52.514Z,98852.52
2019-05-19T14:02:20.165Z,98850.58
2019-05-19T14:04:47.441Z,98852.70
2019-05-19T14:07:14.804Z,98846.98
2019-05-19T14:09:42.122Z,98849.06
2019-05-19T14:12:09.486Z,98848.44
2019-05-19T14:14:36.714Z,98849.61
2019-05-19T14:17:04.071Z,98852.95
2019-05-19T14:19:31.427Z,98853.78
2019-05-19T14:21:58.742Z,98845.98
2019-05-19T14:24:26.002Z,98840.81
2019-05-19T14:26:53.298Z,98845.23
2019-05-19T14:29:20.552Z,98835.20
2019-05-19T14:31:47.840Z,98840.48
2019-05-19T14:34:15.057Z,98843.95
2019-05-19T14:36:42.616Z,98850.44
2019-05-19T14:39:10.096Z,98849.23
2019-05-19T14:41:42.107Z,98847.73
2019-05-19T14:44:09.499Z,98853.47
2019-05-19T14:46:36.921Z,98835.80
2019-05-19T14:49:04.293Z,98838.38
2019-05-19T14:51:31.630Z,98851.45
2019-05-19T14:53:58.918Z,98844.58
2019-05-19T14:56:26.201Z,98849.21
2019-05-19T14:58:53.479Z,98847.12
2019-05-19T15:01:20.774Z,98840.64
2019-05-19T15:03:49.527Z,98836.59
2019-05-19T15:06:18.100Z,98835.87
2019-05-19T15:08:49.091Z,98832.07
2019-05-19T15:11:17.752Z,98831.96
2019-05-19T15:13:45.232Z,98833.10
2019-05-19T15:16:12.586Z,98836.36
2019-05-19T15:18:40.413Z,98837.72
2019-05-19T15:21:07.698Z,98844.25
2019-05-19T15:23:34.971Z,98847.26
2019-05-19T15:26:02.344Z,98844.83
2019-05-19T15:28:29.589Z,98848.33
2019-05-19T15:30:56.885Z,98846.95
2019-05-19T15:33:24.201Z,98848.41
2019-05-19T15:35:51.551Z,98849.25
2019-05-19T15:38:18.843Z,98852.83
2019-05-19T15:40:46.089Z,98839.11
2019-05-19T15:43:13.352Z,98846.41
2019-05-19T15:45:40.711Z,98831.34
2019-05-19T15:48:08.106Z,98836.36
2019-05-19T15:50:35.425Z,98844.79
2019-05-19T15:53:02.728Z,98833.60
2019-05-19T15:55:30.798Z,98822.93
2019-05-19T15:57:58.270Z,98822.93
2019-05-19T16:00:25.760Z,98829.23
2019-05-19T16:02:53.135Z,98839.09
2019-05-19T16:05:20.615Z,98838.39
2019-05-19T16:07:48.036Z,98831.56
2019-05-19T16:10:15.553Z,98833.50
2019-05-19T16:12:43.033Z,98833.89
2019-05-19T16:15:10.502Z,98834.54
2019-05-19T16:17:37.983Z,98828.06
2019-05-19T16:20:05.454Z,98827.84
2019-05-19T16:22:32.707Z,98823.24
2019-05-19T16:25:00.342Z,98827.23
2019-05-19T16:27:27.699Z,98828.72
2019-05-19T16:29:54.994Z,98823.39
2019-05-19T16:32:22.564Z,98818.49
2019-05-19T16:34:49.882Z,98829.32
2019-05-19T16:37:17.215Z,98822.39
2019-05-19T16:39:44.711Z,98827.89
2019-05-19T16:42:12.385Z,98828.28
2019-05-19T16:44:39.963Z,98824.73
2019-05-19T16:47:07.297Z,98824.52
2019-05-19T16:49:34.673Z,98823.83
2019-05-19T16:52:02.130Z,98820.69
2019-05-19T16:54:33.752Z,98825.50
2019-05-19T16:57:01.127Z,98825.50
2019-05-19T16:59:30.521Z,98825.91
2019-05-19T17:01:58.612Z,98823.98
2019-05-19T17:04:26.978Z,98820.42
2019-05-19T17:06:55.411Z,98825.92
2019-05-19T17:09:22.911Z,98824.66
2019-05-19T17:11:50.265Z,98830.27
2019-05-19T17:14:17.541Z,98831.73
2019-05-19T17:16:44.926Z,98821.92
2019-05-19T17:19:12.242Z,98830.26
2019-05-19T17:21:39.515Z,98824.30
2019-05-19T17:24:06.981Z,98830.89
2019-05-19T17:26:34.539Z,98833.09
2019-05-19T17:29:02.041Z,98829.72
2019-05-19T17:31:29.689Z,98831.34
2019-05-19T17:33:57.225Z,98830.31
2019-05-19T17:36:27.379Z,98830.63
2019-05-19T17:38:53.793Z,98821.42
2019-05-19T17:41:21.325Z,98821.75
2019-05-19T17:43:48.694Z,98817.14
2019-05-19T17:46:15.916Z,98817.77
2019-05-19T17:48:43.705Z,98821.92
2019-05-19T17:51:11.257Z,98812.31
2019-05-19T17:53:38.702Z,98814.40
2019-05-19T17:56:05.941Z,98814.62
2019-05-19T17:58:33.323Z,98824.00
2019-05-19T18:01:00.735Z,98824.14
2019-05-19T18:03:28.135Z,98836.00
2019-05-19T18:05:55.698Z,98834.21
2019-05-19T18:08:23.039Z,98840.55
2019-05-19T18:10:50.424Z,98839.80
2019-05-19T18:13:17.857Z,98854.67
2019-05-19T18:15:45.537Z,98855.33
2019-05-19T18:18:13.033Z,98856.27
2019-05-19T18:20:40.416Z,98860.80
2019-05-19T18:23:07.713Z,98865.66
2019-05-19T18:25:35.088Z,98859.38
2019-05-19T18:28:02.391Z,98866.78
2019-05-19T18:30:29.619Z,98874.41
2019-05-19T18:32:57.026Z,98874.67
2019-05-19T18:35:24.360Z,98869.24
2019-05-19T18:37:51.957Z,98872.22
2019-05-19T18:40:19.654Z,98868.25
2019-05-19T18:42:47.080Z,98873.15
2019-05-19T18:45:14.491Z,98878.28
2019-05-19T18:47:41.755Z,98880.75
2019-05-19T18:50:09.117Z,98886.35
2019-05-19T18:52:36.350Z,98891.67
2019-05-19T18:55:04.095Z,98891.13
2019-05-19T18:57:32.482Z,98890.31
2019-05-19T18:59:59.845Z,98897.50
2019-05-19T19:02:27.135Z,98901.13
2019-05-19T19:04:54.577Z,98903.30
2019-05-19T19:07:24.331Z,98905.70
2019-05-19T19:09:52.012Z,98908.05
2019-05-19T19:12:19.820Z,98915.57
2019-05-19T19:14:47.200Z,98913.36
2019-05-19T19:17:14.467Z,98916.81
2019-05-19T19:19:41.757Z,98920.66
2019-05-19T19:22:09.105Z,98915.30
2019-05-19T19:24:38.545Z,98910.56
2019-05-19T19:27:05.687Z,98908.80
2019-05-19T19:29:32.960Z,98914.58
2019-05-19T19:32:00.480Z,98912.36
2019-05-19T19:34:28.211Z,98917.70
2019-05-19T19:36:59.244Z,98914.17
2019-05-19T19:39:30.023Z,98908.99
2019-05-19T19:41:57.611Z,98914.94
2019-05-19T19:44:27.965Z,98910.00
2019-05-19T19:46:57.408Z,98908.19
2019-05-19T19:49:24.849Z,98911.62
2019-05-19T19:51:53.339Z,98915.10
2019-05-19T19:54:26.771Z,98919.41
2019-05-19T19:57:00.503Z,98918.40
2019-05-19T19:59:32.057Z,98921.80
2019-05-19T20:01:59.492Z,98921.23
2019-05-19T20:04:26.981Z,98920.86
2019-05-19T20:06:54.390Z,98915.01
2019-05-19T20:09:21.928Z,98918.86
2019-05-19T20:11:49.214Z,98912.70
2019-05-19T20:14:16.557Z,98921.83
2019-05-19T20:16:43.875Z,98925.83
2019-05-19T20:19:11.341Z,98932.99
2019-05-19T20:21:38.580Z,98929.62
2019-05-19T20:24:05.953Z,98929.59
2019-05-19T20:26:33.318Z,98936.27
2019-05-19T20:29:00.696Z,98937.61
2019-05-19T20:31:27.975Z,98939.06
2019-05-19T20:33:56.384Z,98942.64
2019-05-19T20:36:23.726Z,98951.38
2019-05-19T20:38:51.103Z,98953.59
2019-05-19T20:41:18.371Z,98940.95
2019-05-19T20:43:45.645Z,98940.04
2019-05-19T20:46:12.989Z,98941.50
2019-05-19T20:48:40.242Z,98939.94
2019-05-19T20:51:07.700Z,98943.27
2019-05-19T20:53:35.040Z,98939.05
2019-05-19T20:56:02.619Z,98938.80
2019-05-19T20:58:29.994Z,98942.03
2019-05-19T21:00:57.261Z,98935.28
2019-05-19T21:03:25.640Z,98938.10
2019-05-19T21:05:52.962Z,98934.07
2019-05-19T21:08:20.248Z,98934.89
2019-05-19T21:10:47.508Z,98936.54
2019-05-19T21:13:15.011Z,98934.71
2019-05-19T21:15:42.415Z,98933.49
2019-05-19T21:18:09.722Z,98934.71
2019-05-19T21:20:37.084Z,98935.70
2019-05-19T21:23:04.532Z,98934.71
2019-05-19T21:25:31.871Z,98938.81
2019-05-19T21:27:59.159Z,98940.16
2019-05-19T21:30:26.422Z,98946.41
2019-05-19T21:32:53.839Z,98941.22
2019-05-19T21:35:21.098Z,98948.57
2019-05-19T21:37:48.354Z,98950.05
2019-05-19T21:40:15.627Z,98944.11
2019-05-19T21:45:08.869Z,98948.91
2019-05-19T21:47:36.201Z,98958.20
2019-05-19T21:50:04.406Z,98955.29
2019-05-19T21:52:31.761Z,98962.14
2019-05-19T21:54:59.087Z,98966.78
2019-05-19T21:57:26.413Z,98964.13
2019-05-19T21:59:53.925Z,98958.42
2019-05-19T22:02:21.486Z,98955.56
2019-05-19T22:04:48.867Z,98958.36
2019-05-19T22:07:25.100Z,98961.41
2019-05-19T22:09:52.389Z,98953.77
2019-05-19T22:12:19.850Z,98953.31
2019-05-19T22:14:47.181Z,98951.61
2019-05-19T22:17:14.470Z,98956.63
2019-05-19T22:19:41.781Z,98957.52
2019-05-19T22:22:09.050Z,98957.52
2019-05-19T22:24:36.462Z,98959.52
2019-05-19T22:27:03.847Z,98962.40
2019-05-19T22:29:31.168Z,98962.72
2019-05-19T22:31:58.401Z,98959.94
2019-05-19T22:34:25.755Z,98962.14
2019-05-19T22:36:53.083Z,98970.89
2019-05-19T22:39:20.416Z,98962.08
2019-05-19T22:41:47.630Z,98968.02
2019-05-19T22:44:16.124Z,98968.67
2019-05-19T22:46:43.490Z,98964.59
2019-05-19T22:49:10.893Z,98964.53
2019-05-19T22:51:38.268Z,98972.48
2019-05-19T22:54:05.665Z,98971.02
2019-05-19T22:56:32.973Z,98974.13
2019-05-19T22:59:01.177Z,98976.64
2019-05-19T23:01:28.856Z,98967.04
2019-05-19T23:03:57.427Z,98960.28
2019-05-19T23:06:24.967Z,98963.44
2019-05-19T23:08:52.326Z,98955.59
2019-05-19T23:11:19.703Z,98947.29
2019-05-19T23:13:47.967Z,98949.00
2019-05-19T23:16:15.200Z,98946.53
2019-05-19T23:18:42.507Z,98950.92
2019-05-19T23:21:09.741Z,98947.05
2019-05-19T23:23:37.098Z,98938.67
2019-05-19T23:26:04.394Z,98942.61
2019-05-19T23:28:31.714Z,98934.59
2019-05-19T23:30:58.995Z,98934.78
2019-05-19T23:33:26.245Z,98935.02
2019-05-19T23:35:53.540Z,98938.77
2019-05-19T23:40:41.455Z,98928.54
2019-05-19T23:43:08.803Z,98930.69
2019-05-19T23:45:36.067Z,98932.70
2019-05-19T23:48:03.356Z,98937.63
2019-05-19T23:50:30.602Z,98934.03
2019-05-19T23:52:57.980Z,98933.41
2019-05-19T23:55:25.241Z,98924.27
2019-05-19T23:57:52.545Z,98920.00
